sensor_id;sensor_type;location;lat;lon;timestamp;temperature;humidity
64987;DHT22;51532;52.108;9.360;2022-07-10T00:02:16;15.00;99.90
64987;DHT22;51532;52.108;9.360;2022-07-10T00:05:02;14.90;99.90
64987;DHT22;51532;52.108;9.360;2022-07-10T00:07:48;15.00;99.90
64987;DHT22;51532;52.108;9.360;2022-07-10T00:10:34;15.00;99.90
64987;DHT22;51532;52.108;9.360;2022-07-10T00:13:20;14.90;99.90
64987;DHT22;51532;52.108;9.360;2022-07-10T00:16:05;14.90;99.90
64987;DHT22;51532;52.108;9.360;2022-07-10T00:18:51;14.90;99.90
64987;DHT22;51532;52.108;9.360;2022-07-10T00:21:36;14.90;99.90
64987;DHT22;51532;52.108;9.360;2022-07-10T00:24:22;14.90;99.90
64987;DHT22;51532;52.108;9.360;2022-07-10T00:27:07;14.90;99.90
64987;DHT22;51532;52.108;9.360;2022-07-10T00:29:53;14.80;99.90
64987;DHT22;51532;52.108;9.360;2022-07-10T00:32:38;14.90;99.90
64987;DHT22;51532;52.108;9.360;2022-07-10T00:35:23;14.90;99.90
64987;DHT22;51532;52.108;9.360;2022-07-10T00:38:09;14.80;99.90
64987;DHT22;51532;52.108;9.360;2022-07-10T00:40:54;14.90;99.90
64987;DHT22;51532;52.108;9.360;2022-07-10T00:43:58;14.80;99.90
64987;DHT22;51532;52.108;9.360;2022-07-10T00:46:43;14.90;99.90
64987;DHT22;51532;52.108;9.360;2022-07-10T00:49:28;14.90;99.90
64987;DHT22;51532;52.108;9.360;2022-07-10T00:52:16;14.90;99.90
64987;DHT22;51532;52.108;9.360;2022-07-10T00:55:02;14.90;99.90
64987;DHT22;51532;52.108;9.360;2022-07-10T00:57:48;14.90;99.90
64987;DHT22;51532;52.108;9.360;2022-07-10T01:00:35;14.70;99.90
64987;DHT22;51532;52.108;9.360;2022-07-10T01:03:22;14.50;99.90
64987;DHT22;51532;52.108;9.360;2022-07-10T01:06:08;14.60;99.90
64987;DHT22;51532;52.108;9.360;2022-07-10T01:08:53;14.60;99.90
64987;DHT22;51532;52.108;9.360;2022-07-10T01:11:39;14.60;99.90
64987;DHT22;51532;52.108;9.360;2022-07-10T01:14:25;14.70;99.90
64987;DHT22;51532;52.108;9.360;2022-07-10T01:17:11;14.60;99.90
64987;DHT22;51532;52.108;9.360;2022-07-10T01:19:57;14.70;99.90
64987;DHT22;51532;52.108;9.360;2022-07-10T01:22:42;14.60;99.90
64987;DHT22;51532;52.108;9.360;2022-07-10T01:25:28;14.60;99.90
64987;DHT22;51532;52.108;9.360;2022-07-10T01:28:13;14.60;99.90
64987;DHT22;51532;52.108;9.360;2022-07-10T01:30:58;14.70;99.90
64987;DHT22;51532;52.108;9.360;2022-07-10T01:33:44;14.70;99.90
64987;DHT22;51532;52.108;9.360;2022-07-10T01:36:30;14.60;99.90
64987;DHT22;51532;52.108;9.360;2022-07-10T01:39:15;14.60;99.90
64987;DHT22;51532;52.108;9.360;2022-07-10T01:42:01;14.70;99.90
64987;DHT22;51532;52.108;9.360;2022-07-10T01:44:46;14.70;99.90
64987;DHT22;51532;52.108;9.360;2022-07-10T01:47:32;14.60;99.90
64987;DHT22;51532;52.108;9.360;2022-07-10T01:50:17;14.50;99.90
64987;DHT22;51532;52.108;9.360;2022-07-10T01:53:02;14.60;99.90
64987;DHT22;51532;52.108;9.360;2022-07-10T01:55:51;14.60;99.90
64987;DHT22;51532;52.108;9.360;2022-07-10T01:58:37;14.60;99.90
64987;DHT22;51532;52.108;9.360;2022-07-10T02:01:23;14.70;99.90
64987;DHT22;51532;52.108;9.360;2022-07-10T02:04:08;14.70;99.90
64987;DHT22;51532;52.108;9.360;2022-07-10T02:07:14;14.70;99.90
64987;DHT22;51532;52.108;9.360;2022-07-10T02:09:59;13.70;99.90
64987;DHT22;51532;52.108;9.360;2022-07-10T02:12:45;14.70;99.90
64987;DHT22;51532;52.108;9.360;2022-07-10T02:15:30;14.70;99.90
64987;DHT22;51532;52.108;9.360;2022-07-10T02:18:16;14.60;99.90
64987;DHT22;51532;52.108;9.360;2022-07-10T02:21:01;14.70;99.90
64987;DHT22;51532;52.108;9.360;2022-07-10T02:23:47;14.70;99.90
64987;DHT22;51532;52.108;9.360;2022-07-10T02:26:32;14.70;99.90
64987;DHT22;51532;52.108;9.360;2022-07-10T02:29:18;14.70;99.90
64987;DHT22;51532;52.108;9.360;2022-07-10T02:32:04;14.70;99.90
64987;DHT22;51532;52.108;9.360;2022-07-10T02:34:50;14.70;99.90
64987;DHT22;51532;52.108;9.360;2022-07-10T02:37:35;14.70;99.90
64987;DHT22;51532;52.108;9.360;2022-07-10T02:40:21;14.60;99.90
64987;DHT22;51532;52.108;9.360;2022-07-10T02:43:07;14.70;99.90
64987;DHT22;51532;52.108;9.360;2022-07-10T02:45:52;14.70;99.90
64987;DHT22;51532;52.108;9.360;2022-07-10T02:48:37;14.80;99.90
64987;DHT22;51532;52.108;9.360;2022-07-10T02:51:23;14.70;99.90
64987;DHT22;51532;52.108;9.360;2022-07-10T02:54:09;14.60;99.90
64987;DHT22;51532;52.108;9.360;2022-07-10T02:56:54;14.70;99.90
64987;DHT22;51532;52.108;9.360;2022-07-10T02:59:41;14.70;99.90
64987;DHT22;51532;52.108;9.360;2022-07-10T03:02:26;14.70;99.90
64987;DHT22;51532;52.108;9.360;2022-07-10T03:05:12;14.70;99.90
64987;DHT22;51532;52.108;9.360;2022-07-10T03:07:57;14.60;99.90
64987;DHT22;51532;52.108;9.360;2022-07-10T03:10:43;14.60;99.90
64987;DHT22;51532;52.108;9.360;2022-07-10T03:13:28;14.60;99.90
64987;DHT22;51532;52.108;9.360;2022-07-10T03:16:13;14.60;99.90
64987;DHT22;51532;52.108;9.360;2022-07-10T03:18:59;14.60;99.90
64987;DHT22;51532;52.108;9.360;2022-07-10T03:21:44;14.50;99.90
64987;DHT22;51532;52.108;9.360;2022-07-10T03:24:30;14.60;99.90
64987;DHT22;51532;52.108;9.360;2022-07-10T03:27:16;14.60;99.90
64987;DHT22;51532;52.108;9.360;2022-07-10T03:30:02;14.50;99.90
64987;DHT22;51532;52.108;9.360;2022-07-10T03:32:48;14.50;99.90
64987;DHT22;51532;52.108;9.360;2022-07-10T03:35:33;14.60;99.90
64987;DHT22;51532;52.108;9.360;2022-07-10T03:38:18;17.00;99.90
64987;DHT22;51532;52.108;9.360;2022-07-10T03:41:04;14.50;99.90
64987;DHT22;51532;52.108;9.360;2022-07-10T03:43:49;14.50;99.90
64987;DHT22;51532;52.108;9.360;2022-07-10T03:46:35;14.60;99.90
64987;DHT22;51532;52.108;9.360;2022-07-10T03:49:20;14.60;99.90
64987;DHT22;51532;52.108;9.360;2022-07-10T03:52:06;14.40;99.90
64987;DHT22;51532;52.108;9.360;2022-07-10T03:54:54;14.40;99.90
64987;DHT22;51532;52.108;9.360;2022-07-10T03:57:40;14.30;99.90
64987;DHT22;51532;52.108;9.360;2022-07-10T04:00:47;14.30;99.90
64987;DHT22;51532;52.108;9.360;2022-07-10T04:03:32;14.30;99.90
64987;DHT22;51532;52.108;9.360;2022-07-10T04:06:18;14.30;99.90
64987;DHT22;51532;52.108;9.360;2022-07-10T04:09:04;14.30;99.90
64987;DHT22;51532;52.108;9.360;2022-07-10T04:11:49;14.30;99.90
64987;DHT22;51532;52.108;9.360;2022-07-10T04:14:35;14.30;99.90
64987;DHT22;51532;52.108;9.360;2022-07-10T04:17:20;14.30;99.90
64987;DHT22;51532;52.108;9.360;2022-07-10T04:20:06;14.30;99.90
64987;DHT22;51532;52.108;9.360;2022-07-10T04:22:52;14.30;99.90
64987;DHT22;51532;52.108;9.360;2022-07-10T04:25:37;14.40;99.90
64987;DHT22;51532;52.108;9.360;2022-07-10T04:28:22;14.50;99.90
64987;DHT22;51532;52.108;9.360;2022-07-10T04:31:08;14.50;99.90
64987;DHT22;51532;52.108;9.360;2022-07-10T04:33:53;14.60;99.90
64987;DHT22;51532;52.108;9.360;2022-07-10T04:36:39;14.70;99.90
64987;DHT22;51532;52.108;9.360;2022-07-10T04:39:24;14.70;99.90
64987;DHT22;51532;52.108;9.360;2022-07-10T04:42:09;14.80;99.90
64987;DHT22;51532;52.108;9.360;2022-07-10T04:44:55;14.80;99.90
64987;DHT22;51532;52.108;9.360;2022-07-10T04:47:40;14.80;99.90
64987;DHT22;51532;52.108;9.360;2022-07-10T04:50:26;14.80;99.90
64987;DHT22;51532;52.108;9.360;2022-07-10T04:53:12;14.80;99.90
64987;DHT22;51532;52.108;9.360;2022-07-10T04:55:57;14.80;99.90
64987;DHT22;51532;52.108;9.360;2022-07-10T04:58:43;14.80;99.90
64987;DHT22;51532;52.108;9.360;2022-07-10T05:01:36;14.80;99.90
64987;DHT22;51532;52.108;9.360;2022-07-10T05:04:24;14.70;99.90
64987;DHT22;51532;52.108;9.360;2022-07-10T05:07:10;14.70;99.90
64987;DHT22;51532;52.108;9.360;2022-07-10T05:09:55;14.70;99.90
64987;DHT22;51532;52.108;9.360;2022-07-10T05:12:41;14.80;99.90
64987;DHT22;51532;52.108;9.360;2022-07-10T05:15:26;14.90;99.90
64987;DHT22;51532;52.108;9.360;2022-07-10T05:18:12;14.80;99.90
64987;DHT22;51532;52.108;9.360;2022-07-10T05:20:57;14.70;99.90
64987;DHT22;51532;52.108;9.360;2022-07-10T05:23:43;14.70;99.90
64987;DHT22;51532;52.108;9.360;2022-07-10T05:26:28;14.70;99.90
64987;DHT22;51532;52.108;9.360;2022-07-10T05:29:14;16.20;99.90
64987;DHT22;51532;52.108;9.360;2022-07-10T05:31:59;15.00;99.90
64987;DHT22;51532;52.108;9.360;2022-07-10T05:34:44;15.20;99.90
64987;DHT22;51532;52.108;9.360;2022-07-10T05:37:30;15.30;99.90
64987;DHT22;51532;52.108;9.360;2022-07-10T05:40:15;15.40;99.90
64987;DHT22;51532;52.108;9.360;2022-07-10T05:43:00;15.20;99.90
64987;DHT22;51532;52.108;9.360;2022-07-10T05:45:46;15.30;99.90
64987;DHT22;51532;52.108;9.360;2022-07-10T05:48:36;15.30;99.90
64987;DHT22;51532;52.108;9.360;2022-07-10T05:51:24;15.30;99.90
64987;DHT22;51532;52.108;9.360;2022-07-10T05:54:26;15.40;99.90
64987;DHT22;51532;52.108;9.360;2022-07-10T05:57:12;15.30;99.90
64987;DHT22;51532;52.108;9.360;2022-07-10T06:02:43;15.30;99.90
64987;DHT22;51532;52.108;9.360;2022-07-10T06:05:29;15.20;99.90
64987;DHT22;51532;52.108;9.360;2022-07-10T06:08:14;15.30;99.90
64987;DHT22;51532;52.108;9.360;2022-07-10T06:11:00;15.20;99.90
64987;DHT22;51532;52.108;9.360;2022-07-10T06:13:46;15.20;99.90
64987;DHT22;51532;52.108;9.360;2022-07-10T06:16:31;15.20;99.90
64987;DHT22;51532;52.108;9.360;2022-07-10T06:19:17;15.10;99.90
64987;DHT22;51532;52.108;9.360;2022-07-10T06:22:03;15.30;99.90
64987;DHT22;51532;52.108;9.360;2022-07-10T06:25:08;15.30;99.90
64987;DHT22;51532;52.108;9.360;2022-07-10T06:27:54;16.40;99.90
64987;DHT22;51532;52.108;9.360;2022-07-10T06:30:40;15.60;99.90
64987;DHT22;51532;52.108;9.360;2022-07-10T06:33:25;18.30;99.90
64987;DHT22;51532;52.108;9.360;2022-07-10T06:36:11;15.70;99.90
64987;DHT22;51532;52.108;9.360;2022-07-10T06:38:57;15.80;99.90
64987;DHT22;51532;52.108;9.360;2022-07-10T06:41:43;15.80;99.90
64987;DHT22;51532;52.108;9.360;2022-07-10T06:44:28;15.90;99.90
64987;DHT22;51532;52.108;9.360;2022-07-10T06:47:16;15.90;99.90
64987;DHT22;51532;52.108;9.360;2022-07-10T06:50:21;16.00;99.90
64987;DHT22;51532;52.108;9.360;2022-07-10T06:53:07;16.20;99.90
64987;DHT22;51532;52.108;9.360;2022-07-10T06:55:52;16.20;99.90
64987;DHT22;51532;52.108;9.360;2022-07-10T06:58:38;16.20;99.90
64987;DHT22;51532;52.108;9.360;2022-07-10T07:01:25;16.20;99.90
64987;DHT22;51532;52.108;9.360;2022-07-10T07:04:10;16.10;99.90
64987;DHT22;51532;52.108;9.360;2022-07-10T07:06:56;16.10;99.90
64987;DHT22;51532;52.108;9.360;2022-07-10T07:09:41;16.20;99.90
64987;DHT22;51532;52.108;9.360;2022-07-10T07:12:28;16.10;99.90
64987;DHT22;51532;52.108;9.360;2022-07-10T07:15:14;16.30;99.90
64987;DHT22;51532;52.108;9.360;2022-07-10T07:18:01;16.50;99.90
64987;DHT22;51532;52.108;9.360;2022-07-10T07:20:53;18.90;99.90
64987;DHT22;51532;52.108;9.360;2022-07-10T07:23:57;16.40;99.90
64987;DHT22;51532;52.108;9.360;2022-07-10T07:26:43;16.40;99.90
64987;DHT22;51532;52.108;9.360;2022-07-10T07:29:29;16.20;99.90
64987;DHT22;51532;52.108;9.360;2022-07-10T07:32:14;15.60;99.90
64987;DHT22;51532;52.108;9.360;2022-07-10T07:35:00;16.50;99.90
64987;DHT22;51532;52.108;9.360;2022-07-10T07:37:47;16.70;99.90
64987;DHT22;51532;52.108;9.360;2022-07-10T07:40:33;16.90;99.90
64987;DHT22;51532;52.108;9.360;2022-07-10T07:43:19;17.00;99.90
64987;DHT22;51532;52.108;9.360;2022-07-10T07:46:04;16.90;99.90
64987;DHT22;51532;52.108;9.360;2022-07-10T07:48:50;16.90;99.90
64987;DHT22;51532;52.108;9.360;2022-07-10T07:51:35;17.50;99.90
64987;DHT22;51532;52.108;9.360;2022-07-10T07:54:21;18.00;99.90
64987;DHT22;51532;52.108;9.360;2022-07-10T07:57:06;18.00;99.90
64987;DHT22;51532;52.108;9.360;2022-07-10T07:59:52;17.80;99.90
64987;DHT22;51532;52.108;9.360;2022-07-10T08:02:38;17.80;99.90
64987;DHT22;51532;52.108;9.360;2022-07-10T08:05:24;17.80;99.90
64987;DHT22;51532;52.108;9.360;2022-07-10T08:08:09;18.10;99.90
64987;DHT22;51532;52.108;9.360;2022-07-10T08:10:55;17.80;99.90
64987;DHT22;51532;52.108;9.360;2022-07-10T08:13:40;17.60;99.90
64987;DHT22;51532;52.108;9.360;2022-07-10T08:16:26;17.90;99.90
64987;DHT22;51532;52.108;9.360;2022-07-10T08:19:11;18.20;99.90
64987;DHT22;51532;52.108;9.360;2022-07-10T08:21:56;18.00;99.90
64987;DHT22;51532;52.108;9.360;2022-07-10T08:24:42;17.70;99.90
64987;DHT22;51532;52.108;9.360;2022-07-10T08:27:27;17.80;99.90
64987;DHT22;51532;52.108;9.360;2022-07-10T08:30:13;17.70;99.90
64987;DHT22;51532;52.108;9.360;2022-07-10T08:32:59;17.50;99.90
64987;DHT22;51532;52.108;9.360;2022-07-10T08:35:44;17.30;99.90
64987;DHT22;51532;52.108;9.360;2022-07-10T08:38:30;17.20;99.90
64987;DHT22;51532;52.108;9.360;2022-07-10T08:41:17;19.00;99.90
64987;DHT22;51532;52.108;9.360;2022-07-10T08:44:04;17.30;99.90
64987;DHT22;51532;52.108;9.360;2022-07-10T08:46:50;17.40;99.90
64987;DHT22;51532;52.108;9.360;2022-07-10T08:49:36;17.60;99.90
64987;DHT22;51532;52.108;9.360;2022-07-10T08:52:44;17.90;99.90
64987;DHT22;51532;52.108;9.360;2022-07-10T08:55:36;18.40;99.90
64987;DHT22;51532;52.108;9.360;2022-07-10T08:58:22;18.20;99.90
64987;DHT22;51532;52.108;9.360;2022-07-10T09:01:08;20.10;99.90
64987;DHT22;51532;52.108;9.360;2022-07-10T09:03:54;17.70;99.90
64987;DHT22;51532;52.108;9.360;2022-07-10T09:06:40;18.00;99.90
64987;DHT22;51532;52.108;9.360;2022-07-10T09:09:25;17.70;99.90
64987;DHT22;51532;52.108;9.360;2022-07-10T09:12:11;17.40;99.90
64987;DHT22;51532;52.108;9.360;2022-07-10T09:15:15;17.20;99.90
64987;DHT22;51532;52.108;9.360;2022-07-10T09:18:05;17.10;99.90
64987;DHT22;51532;52.108;9.360;2022-07-10T09:20:54;17.40;99.90
64987;DHT22;51532;52.108;9.360;2022-07-10T09:23:39;19.80;99.90
64987;DHT22;51532;52.108;9.360;2022-07-10T09:26:25;17.90;99.90
64987;DHT22;51532;52.108;9.360;2022-07-10T09:29:12;18.10;99.90
64987;DHT22;51532;52.108;9.360;2022-07-10T09:32:00;18.10;99.90
64987;DHT22;51532;52.108;9.360;2022-07-10T09:34:50;17.70;99.90
64987;DHT22;51532;52.108;9.360;2022-07-10T09:37:59;17.60;99.90
64987;DHT22;51532;52.108;9.360;2022-07-10T09:40:44;17.90;99.90
64987;DHT22;51532;52.108;9.360;2022-07-10T09:43:49;17.70;99.90
64987;DHT22;51532;52.108;9.360;2022-07-10T09:46:36;17.70;99.90
64987;DHT22;51532;52.108;9.360;2022-07-10T09:49:28;17.20;99.90
64987;DHT22;51532;52.108;9.360;2022-07-10T09:52:18;17.80;99.90
64987;DHT22;51532;52.108;9.360;2022-07-10T09:55:04;18.10;99.90
64987;DHT22;51532;52.108;9.360;2022-07-10T09:57:53;18.40;99.90
64987;DHT22;51532;52.108;9.360;2022-07-10T10:00:40;19.00;99.90
64987;DHT22;51532;52.108;9.360;2022-07-10T10:03:27;18.80;99.90
64987;DHT22;51532;52.108;9.360;2022-07-10T10:06:16;19.10;99.90
64987;DHT22;51532;52.108;9.360;2022-07-10T10:11:47;18.90;99.90
64987;DHT22;51532;52.108;9.360;2022-07-10T10:14:34;19.10;99.90
64987;DHT22;51532;52.108;9.360;2022-07-10T10:17:21;18.80;99.90
64987;DHT22;51532;52.108;9.360;2022-07-10T10:20:08;18.80;99.90
64987;DHT22;51532;52.108;9.360;2022-07-10T10:23:21;19.00;99.90
64987;DHT22;51532;52.108;9.360;2022-07-10T10:26:06;18.90;99.90
64987;DHT22;51532;52.108;9.360;2022-07-10T10:28:52;18.80;99.90
64987;DHT22;51532;52.108;9.360;2022-07-10T10:31:39;18.80;99.90
64987;DHT22;51532;52.108;9.360;2022-07-10T10:34:45;19.10;99.90
64987;DHT22;51532;52.108;9.360;2022-07-10T10:37:40;19.00;99.90
64987;DHT22;51532;52.108;9.360;2022-07-10T10:40:32;18.90;99.90
64987;DHT22;51532;52.108;9.360;2022-07-10T10:43:21;19.10;99.90
64987;DHT22;51532;52.108;9.360;2022-07-10T10:46:24;19.20;99.90
64987;DHT22;51532;52.108;9.360;2022-07-10T10:49:10;19.40;99.90
64987;DHT22;51532;52.108;9.360;2022-07-10T10:52:03;19.60;99.90
64987;DHT22;51532;52.108;9.360;2022-07-10T10:57:45;20.20;99.90
64987;DHT22;51532;52.108;9.360;2022-07-10T11:00:34;20.50;99.90
64987;DHT22;51532;52.108;9.360;2022-07-10T11:03:23;20.10;99.90
64987;DHT22;51532;52.108;9.360;2022-07-10T11:06:13;19.90;99.90
64987;DHT22;51532;52.108;9.360;2022-07-10T11:08:59;19.70;99.90
64987;DHT22;51532;52.108;9.360;2022-07-10T11:12:01;19.40;99.90
64987;DHT22;51532;52.108;9.360;2022-07-10T11:14:46;19.20;99.90
64987;DHT22;51532;52.108;9.360;2022-07-10T11:17:34;18.90;99.90
64987;DHT22;51532;52.108;9.360;2022-07-10T11:20:20;19.00;99.90
64987;DHT22;51532;52.108;9.360;2022-07-10T11:26:24;18.80;99.90
64987;DHT22;51532;52.108;9.360;2022-07-10T11:29:09;18.80;99.90
64987;DHT22;51532;52.108;9.360;2022-07-10T11:31:55;18.80;99.90
64987;DHT22;51532;52.108;9.360;2022-07-10T11:34:40;19.10;99.90
64987;DHT22;51532;52.108;9.360;2022-07-10T11:37:26;18.90;99.90
64987;DHT22;51532;52.108;9.360;2022-07-10T11:40:15;18.80;99.90
64987;DHT22;51532;52.108;9.360;2022-07-10T11:43:01;18.50;99.90
64987;DHT22;51532;52.108;9.360;2022-07-10T11:45:50;18.60;99.90
64987;DHT22;51532;52.108;9.360;2022-07-10T11:48:38;18.50;99.90
64987;DHT22;51532;52.108;9.360;2022-07-10T11:51:30;18.30;99.90
64987;DHT22;51532;52.108;9.360;2022-07-10T11:54:16;18.30;99.90
64987;DHT22;51532;52.108;9.360;2022-07-10T11:57:06;18.30;99.90
64987;DHT22;51532;52.108;9.360;2022-07-10T11:59:53;18.20;99.90
64987;DHT22;51532;52.108;9.360;2022-07-10T12:02:39;18.20;99.90
64987;DHT22;51532;52.108;9.360;2022-07-10T12:08:17;18.20;99.90
64987;DHT22;51532;52.108;9.360;2022-07-10T12:11:11;18.00;99.90
64987;DHT22;51532;52.108;9.360;2022-07-10T12:14:18;18.30;99.90
64987;DHT22;51532;52.108;9.360;2022-07-10T12:17:11;16.50;99.90
64987;DHT22;51532;52.108;9.360;2022-07-10T12:19:58;17.90;99.90
64987;DHT22;51532;52.108;9.360;2022-07-10T12:22:43;17.60;99.90
64987;DHT22;51532;52.108;9.360;2022-07-10T12:25:29;17.60;99.90
64987;DHT22;51532;52.108;9.360;2022-07-10T12:28:15;17.80;99.90
64987;DHT22;51532;52.108;9.360;2022-07-10T12:31:00;17.80;99.90
64987;DHT22;51532;52.108;9.360;2022-07-10T12:33:56;18.10;99.90
64987;DHT22;51532;52.108;9.360;2022-07-10T12:36:49;18.60;99.90
64987;DHT22;51532;52.108;9.360;2022-07-10T12:39:49;19.40;99.90
64987;DHT22;51532;52.108;9.360;2022-07-10T12:42:37;19.90;99.90
64987;DHT22;51532;52.108;9.360;2022-07-10T12:45:22;20.30;99.90
64987;DHT22;51532;52.108;9.360;2022-07-10T12:48:21;20.00;99.90
64987;DHT22;51532;52.108;9.360;2022-07-10T12:51:23;20.30;99.90
64987;DHT22;51532;52.108;9.360;2022-07-10T12:54:08;20.20;99.90
64987;DHT22;51532;52.108;9.360;2022-07-10T12:56:58;20.00;99.90
64987;DHT22;51532;52.108;9.360;2022-07-10T12:59:45;19.60;99.90
64987;DHT22;51532;52.108;9.360;2022-07-10T13:02:31;19.40;99.90
64987;DHT22;51532;52.108;9.360;2022-07-10T13:05:34;19.30;99.90
64987;DHT22;51532;52.108;9.360;2022-07-10T13:08:21;18.80;99.90
64987;DHT22;51532;52.108;9.360;2022-07-10T13:11:08;18.60;99.90
64987;DHT22;51532;52.108;9.360;2022-07-10T13:13:54;18.40;99.90
64987;DHT22;51532;52.108;9.360;2022-07-10T13:16:40;18.30;99.90
64987;DHT22;51532;52.108;9.360;2022-07-10T13:19:26;18.00;99.90
64987;DHT22;51532;52.108;9.360;2022-07-10T13:22:11;17.70;99.90
64987;DHT22;51532;52.108;9.360;2022-07-10T13:24:56;17.40;99.90
64987;DHT22;51532;52.108;9.360;2022-07-10T13:27:42;17.60;99.90
64987;DHT22;51532;52.108;9.360;2022-07-10T13:30:27;17.90;99.90
64987;DHT22;51532;52.108;9.360;2022-07-10T13:33:13;18.00;99.90
64987;DHT22;51532;52.108;9.360;2022-07-10T13:36:02;17.90;99.90
64987;DHT22;51532;52.108;9.360;2022-07-10T13:38:48;17.70;99.90
64987;DHT22;51532;52.108;9.360;2022-07-10T13:41:34;17.60;99.90
64987;DHT22;51532;52.108;9.360;2022-07-10T13:44:20;18.00;99.90
64987;DHT22;51532;52.108;9.360;2022-07-10T13:47:06;18.60;99.90
64987;DHT22;51532;52.108;9.360;2022-07-10T13:49:51;19.20;99.90
64987;DHT22;51532;52.108;9.360;2022-07-10T13:52:36;19.80;99.90
64987;DHT22;51532;52.108;9.360;2022-07-10T13:55:22;19.60;99.90
64987;DHT22;51532;52.108;9.360;2022-07-10T13:58:09;19.30;99.90
64987;DHT22;51532;52.108;9.360;2022-07-10T14:00:54;19.10;99.90
64987;DHT22;51532;52.108;9.360;2022-07-10T14:03:41;19.20;99.90
64987;DHT22;51532;52.108;9.360;2022-07-10T14:06:27;19.50;99.90
64987;DHT22;51532;52.108;9.360;2022-07-10T14:09:12;19.70;99.90
64987;DHT22;51532;52.108;9.360;2022-07-10T14:11:57;19.90;99.90
64987;DHT22;51532;52.108;9.360;2022-07-10T14:14:43;19.80;99.90
64987;DHT22;51532;52.108;9.360;2022-07-10T14:17:28;20.10;99.90
64987;DHT22;51532;52.108;9.360;2022-07-10T14:20:15;20.00;99.90
64987;DHT22;51532;52.108;9.360;2022-07-10T14:23:00;19.80;99.90
64987;DHT22;51532;52.108;9.360;2022-07-10T14:25:46;19.80;99.90
64987;DHT22;51532;52.108;9.360;2022-07-10T14:28:32;19.70;99.90
64987;DHT22;51532;52.108;9.360;2022-07-10T14:31:19;19.90;99.90
64987;DHT22;51532;52.108;9.360;2022-07-10T14:34:05;19.80;99.90
64987;DHT22;51532;52.108;9.360;2022-07-10T14:36:51;19.70;99.90
64987;DHT22;51532;52.108;9.360;2022-07-10T14:39:44;19.30;99.90
64987;DHT22;51532;52.108;9.360;2022-07-10T14:42:31;19.10;99.90
64987;DHT22;51532;52.108;9.360;2022-07-10T14:45:16;18.90;99.90
64987;DHT22;51532;52.108;9.360;2022-07-10T14:48:21;18.80;99.90
64987;DHT22;51532;52.108;9.360;2022-07-10T14:51:07;18.90;99.90
64987;DHT22;51532;52.108;9.360;2022-07-10T14:53:53;18.70;99.90
64987;DHT22;51532;52.108;9.360;2022-07-10T14:56:40;19.10;99.90
64987;DHT22;51532;52.108;9.360;2022-07-10T14:59:25;18.10;99.90
64987;DHT22;51532;52.108;9.360;2022-07-10T15:02:11;19.60;99.90
64987;DHT22;51532;52.108;9.360;2022-07-10T15:04:56;19.90;99.90
64987;DHT22;51532;52.108;9.360;2022-07-10T15:07:42;19.80;99.90
64987;DHT22;51532;52.108;9.360;2022-07-10T15:10:27;19.90;99.90
64987;DHT22;51532;52.108;9.360;2022-07-10T15:13:13;19.70;99.90
64987;DHT22;51532;52.108;9.360;2022-07-10T15:15:59;19.50;99.90
64987;DHT22;51532;52.108;9.360;2022-07-10T15:18:45;19.20;99.90
64987;DHT22;51532;52.108;9.360;2022-07-10T15:21:31;18.80;99.90
64987;DHT22;51532;52.108;9.360;2022-07-10T15:24:16;18.50;99.90
64987;DHT22;51532;52.108;9.360;2022-07-10T15:27:02;18.60;99.90
64987;DHT22;51532;52.108;9.360;2022-07-10T15:29:48;19.00;99.90
64987;DHT22;51532;52.108;9.360;2022-07-10T15:32:33;18.80;99.90
64987;DHT22;51532;52.108;9.360;2022-07-10T15:35:19;19.20;99.90
64987;DHT22;51532;52.108;9.360;2022-07-10T15:38:04;19.40;99.90
64987;DHT22;51532;52.108;9.360;2022-07-10T15:40:49;19.20;99.90
64987;DHT22;51532;52.108;9.360;2022-07-10T15:43:35;19.00;99.90
64987;DHT22;51532;52.108;9.360;2022-07-10T15:46:20;18.90;99.90
64987;DHT22;51532;52.108;9.360;2022-07-10T15:49:06;19.00;99.90
64987;DHT22;51532;52.108;9.360;2022-07-10T15:51:52;19.20;99.90
64987;DHT22;51532;52.108;9.360;2022-07-10T15:54:37;19.20;99.90
64987;DHT22;51532;52.108;9.360;2022-07-10T15:57:23;19.10;99.90
64987;DHT22;51532;52.108;9.360;2022-07-10T16:00:09;19.00;99.90
64987;DHT22;51532;52.108;9.360;2022-07-10T16:02:54;18.80;99.90
64987;DHT22;51532;52.108;9.360;2022-07-10T16:05:42;19.10;99.90
64987;DHT22;51532;52.108;9.360;2022-07-10T16:08:27;18.80;99.90
64987;DHT22;51532;52.108;9.360;2022-07-10T16:11:13;18.80;99.90
64987;DHT22;51532;52.108;9.360;2022-07-10T16:14:00;18.70;99.90
64987;DHT22;51532;52.108;9.360;2022-07-10T16:16:45;18.70;99.90
64987;DHT22;51532;52.108;9.360;2022-07-10T16:19:30;18.50;99.90
64987;DHT22;51532;52.108;9.360;2022-07-10T16:22:16;18.50;99.90
64987;DHT22;51532;52.108;9.360;2022-07-10T16:25:01;18.50;99.90
64987;DHT22;51532;52.108;9.360;2022-07-10T16:28:05;18.40;99.90
64987;DHT22;51532;52.108;9.360;2022-07-10T16:30:52;18.50;99.90
64987;DHT22;51532;52.108;9.360;2022-07-10T16:33:38;18.40;99.90
64987;DHT22;51532;52.108;9.360;2022-07-10T16:36:28;18.50;99.90
64987;DHT22;51532;52.108;9.360;2022-07-10T16:39:13;18.70;99.90
64987;DHT22;51532;52.108;9.360;2022-07-10T16:42:00;18.60;99.90
64987;DHT22;51532;52.108;9.360;2022-07-10T16:44:46;18.50;99.90
64987;DHT22;51532;52.108;9.360;2022-07-10T16:47:31;18.40;99.90
64987;DHT22;51532;52.108;9.360;2022-07-10T16:50:16;18.40;99.90
64987;DHT22;51532;52.108;9.360;2022-07-10T16:53:03;18.50;99.90
64987;DHT22;51532;52.108;9.360;2022-07-10T16:55:49;18.50;99.90
64987;DHT22;51532;52.108;9.360;2022-07-10T16:58:34;18.50;99.90
64987;DHT22;51532;52.108;9.360;2022-07-10T17:01:20;18.60;99.90
64987;DHT22;51532;52.108;9.360;2022-07-10T17:04:05;18.70;99.90
64987;DHT22;51532;52.108;9.360;2022-07-10T17:06:50;18.70;99.90
64987;DHT22;51532;52.108;9.360;2022-07-10T17:09:36;18.60;99.90
64987;DHT22;51532;52.108;9.360;2022-07-10T17:12:22;18.40;99.90
64987;DHT22;51532;52.108;9.360;2022-07-10T17:15:08;18.40;99.90
64987;DHT22;51532;52.108;9.360;2022-07-10T17:18:00;18.20;99.90
64987;DHT22;51532;52.108;9.360;2022-07-10T17:20:46;18.10;99.90
64987;DHT22;51532;52.108;9.360;2022-07-10T17:23:31;18.10;99.90
64987;DHT22;51532;52.108;9.360;2022-07-10T17:26:17;18.20;99.90
64987;DHT22;51532;52.108;9.360;2022-07-10T17:29:02;18.10;99.90
64987;DHT22;51532;52.108;9.360;2022-07-10T17:31:48;18.10;99.90
64987;DHT22;51532;52.108;9.360;2022-07-10T17:34:34;18.00;99.90
64987;DHT22;51532;52.108;9.360;2022-07-10T17:37:19;19.70;99.90
64987;DHT22;51532;52.108;9.360;2022-07-10T17:40:05;18.00;99.90
64987;DHT22;51532;52.108;9.360;2022-07-10T17:42:51;18.00;99.90
64987;DHT22;51532;52.108;9.360;2022-07-10T17:45:36;18.10;99.90
64987;DHT22;51532;52.108;9.360;2022-07-10T17:48:22;18.10;99.90
64987;DHT22;51532;52.108;9.360;2022-07-10T17:51:07;18.10;99.90